CheckWX is a tool to help pilots better visualize weather data.  It is not intended as a substitute for an official pre-flight weather briefing.

12:54:44 UTC

CYBD METAR
Bella Coola Airport
Bella Coola, Canada
Current

12 hours ago

CYBD 160100Z VRB02KT 8SM FEW011 FEW018 BKN052 BKN200 09/08 A2964 RMK SF1SC2SC3CI2 SF TR OCNL -SHRA CVCTV CLD EMBD LAST STFD OBS/NEXT 161300UTC SLP038
Observed
Oct-16 @ 01:00 UTC
Wind
  • Variable at 2 KTS
Visibility
8 SM
Flight Rules
VFR
Cloud Levels
  • Few at 1,100' AGL
  • Few at 1,800' AGL
  • Broken at 5,200' AGL
  • Broken at 20,000' AGL
Temperature
C / 48°F
Dewpoint
C / 46°F
Humidity
94%
Altimeter
29.64" Hg
Pressure
1003.72 hPa
Previous

13 hours ago

CYBD 160000Z VRB02KT 8SM -SHRA FEW011 FEW028 BKN060TCU BKN200 09/08 A2965 RMK SF1CU1TCU3CI2 VIS E 4 IN LO CLD SLP043
Observed
Oct-16 @ 00:00 UTC
Wind
  • Variable at 2 KTS
Visibility
8 SM
Flight Rules
VFR
Conditions
Light Rain
Cloud Levels
  • Few at 1,100' AGL
  • Few at 2,800' AGL
  • Broken at 6,000' AGL
  • Broken at 20,000' AGL
Temperature
C / 48°F
Dewpoint
C / 46°F
Humidity
94%
Altimeter
29.65" Hg
Pressure
1004.02 hPa
Previous

14 hours ago

CYBD 152300Z 30006KT 240V330 6SM BR FEW011 BKN032 BKN060 OVC070 09/08 A2964 RMK SF2SC3SC2AC1 VIS W 3 INTMT -RA SLP041
Observed
Oct-15 @ 23:00 UTC
Wind
  • 300° at 6 KTS
Visibility
6 SM
Flight Rules
VFR
Conditions
Mist
Cloud Levels
  • Few at 1,100' AGL
  • Broken at 3,200' AGL
  • Broken at 6,000' AGL
  • Overcast at 7,000' AGL
Temperature
C / 48°F
Dewpoint
C / 46°F
Humidity
94%
Altimeter
29.64" Hg
Pressure
1003.72 hPa